Shoshone, California Weather observations

Data are for observation ending at time listed.
 Day   Time    Ave.   Ave.  Ave.  Vector   Max.   Stn.    Total    Solar   Ave.  
  of    of     Air    Rel.  Wind   Wind    Wind   Baro.  Precip.   Rad.    Soil  
Year   Day     Temp.  Hum.  Speed  Dir.    Gust   Pres.                    Temp. 
2015   (PST)    F      %     mph   deg.    mph     mb.     in.     W/m2     F   
------------------------------------------------------------------------------
  58    7:00   44.0    52    1.2    34      3.9    961     0.00      28    99999.0
  58    8:00   47.8    50    0.6    43      2.8    961     0.00     202    99999.0
  58    9:00   54.7    35    1.1   298      3.7    961     0.00     410    99999.0
  58   10:00   59.8    26    2.7   336      7.4    962     0.00     594    99999.0
  58   11:00   62.7    21    3.7   358      7.6    961     0.00     727    99999.0
  58   12:00   65.3    20    2.8   194      9.6    960     0.00     795    99999.0
  58   13:00   66.5    20    3.9   166     12.9    958     0.00     797    99999.0
  58   14:00   67.8    22    4.8   179     13.0    957     0.00     702    99999.0
  58   15:00   68.5    21    4.5   182     12.9    956     0.00     538    99999.0
  58   16:00   68.8    23    3.2   162      9.0    955     0.00     346    99999.0
  58   17:00   68.3    25    4.4   169      8.7    954     0.00     207    99999.0
  58   18:00   66.5    29    2.2   166      7.2    954     0.00      38    99999.0
  58   19:00   65.4    28    9.5   190     21.9    954     0.00       0    99999.0
  58   20:00   63.5    29    7.9   187     16.4    954     0.00       0    99999.0
  58   21:00   62.1    31    8.8   174     19.9    954     0.00       0    99999.0
  58   22:00   60.8    36   11.4   176     22.9    954     0.00       0    99999.0
  58   23:00   59.8    38    9.0   176     18.5    955     0.00       0    99999.0
  59    0:00   58.6    43    8.1   168     13.2    955     0.00       0    99999.0
  59    1:00   57.5    45    4.5   163     12.1    955     0.00       1    99999.0
  59    2:00   56.4    45    3.9   162     11.1    955     0.00       1    99999.0
  59    3:00   56.1    44    9.8   183     15.9    955     0.00       1    99999.0
  59    4:00   55.2    46    6.6   183     15.2    955     0.00       1    99999.0
  59    5:00   54.1    48    2.9   183      8.5    956     0.00       1    99999.0
  59    6:00   54.1    42    6.5   176     14.1    956     0.00       1    99999.0

Return to Shoshone, California graphs page.


Western Regional Climate Center,wrcc@dri.edu